sensor_id;sensor_type;location;lat;lon;timestamp;pressure;altitude;pressure_sealevel;temperature;humidity
55032;BME280;40928;51.076;7.950;2023-05-09T00:01:11;97342.09;;;11.75;100.00
55032;BME280;40928;51.076;7.950;2023-05-09T00:03:38;97338.31;;;11.88;100.00
55032;BME280;40928;51.076;7.950;2023-05-09T00:06:05;97338.97;;;11.95;100.00
55032;BME280;40928;51.076;7.950;2023-05-09T00:08:31;97338.13;;;12.07;100.00
55032;BME280;40928;51.076;7.950;2023-05-09T00:10:57;97335.47;;;12.07;100.00
55032;BME280;40928;51.076;7.950;2023-05-09T00:13:22;97330.69;;;12.09;100.00
55032;BME280;40928;51.076;7.950;2023-05-09T00:15:49;97324.28;;;12.10;100.00
55032;BME280;40928;51.076;7.950;2023-05-09T00:18:19;97324.34;;;12.15;100.00
55032;BME280;40928;51.076;7.950;2023-05-09T00:20:45;97328.84;;;12.26;100.00
55032;BME280;40928;51.076;7.950;2023-05-09T00:23:10;97322.91;;;12.24;100.00
55032;BME280;40928;51.076;7.950;2023-05-09T00:25:36;97318.03;;;12.21;100.00
55032;BME280;40928;51.076;7.950;2023-05-09T00:28:01;97323.72;;;12.25;100.00
55032;BME280;40928;51.076;7.950;2023-05-09T00:30:27;97315.19;;;12.28;100.00
55032;BME280;40928;51.076;7.950;2023-05-09T00:32:52;97306.03;;;12.24;100.00
55032;BME280;40928;51.076;7.950;2023-05-09T00:35:18;97307.91;;;12.40;100.00
55032;BME280;40928;51.076;7.950;2023-05-09T00:37:43;97299.97;;;12.28;100.00
55032;BME280;40928;51.076;7.950;2023-05-09T00:40:09;97301.91;;;12.33;100.00
55032;BME280;40928;51.076;7.950;2023-05-09T00:42:35;97301.81;;;12.28;100.00
55032;BME280;40928;51.076;7.950;2023-05-09T00:45:01;97289.72;;;12.25;100.00
55032;BME280;40928;51.076;7.950;2023-05-09T00:47:28;97293.69;;;12.23;100.00
55032;BME280;40928;51.076;7.950;2023-05-09T00:49:55;97284.06;;;12.22;100.00
55032;BME280;40928;51.076;7.950;2023-05-09T00:52:23;97287.44;;;12.17;100.00
55032;BME280;40928;51.076;7.950;2023-05-09T00:54:51;97281.59;;;12.20;100.00
55032;BME280;40928;51.076;7.950;2023-05-09T00:57:17;97287.69;;;12.15;100.00
55032;BME280;40928;51.076;7.950;2023-05-09T00:59:43;97281.28;;;12.16;100.00
55032;BME280;40928;51.076;7.950;2023-05-09T01:02:09;97274.56;;;12.14;100.00
55032;BME280;40928;51.076;7.950;2023-05-09T01:04:35;97277.72;;;12.11;100.00
55032;BME280;40928;51.076;7.950;2023-05-09T01:07:28;97258.97;;;12.11;100.00
55032;BME280;40928;51.076;7.950;2023-05-09T01:10:02;97258.63;;;12.07;100.00
55032;BME280;40928;51.076;7.950;2023-05-09T01:15:22;97252.38;;;12.01;100.00
55032;BME280;40928;51.076;7.950;2023-05-09T01:17:59;97258.78;;;12.00;100.00
55032;BME280;40928;51.076;7.950;2023-05-09T01:20:39;97253.91;;;11.97;100.00
55032;BME280;40928;51.076;7.950;2023-05-09T01:26:00;97256.97;;;11.89;100.00
55032;BME280;40928;51.076;7.950;2023-05-09T01:28:41;97249.69;;;11.84;100.00
55032;BME280;40928;51.076;7.950;2023-05-09T01:31:14;97244.06;;;11.86;100.00
55032;BME280;40928;51.076;7.950;2023-05-09T01:33:41;97258.28;;;11.86;100.00
55032;BME280;40928;51.076;7.950;2023-05-09T01:36:15;97248.94;;;11.89;100.00
55032;BME280;40928;51.076;7.950;2023-05-09T01:38:43;97250.00;;;11.88;100.00
55032;BME280;40928;51.076;7.950;2023-05-09T01:41:11;97257.97;;;11.83;100.00
55032;BME280;40928;51.076;7.950;2023-05-09T01:43:41;97248.53;;;11.80;100.00
55032;BME280;40928;51.076;7.950;2023-05-09T01:46:07;97247.56;;;11.86;100.00
55032;BME280;40928;51.076;7.950;2023-05-09T01:48:35;97237.44;;;11.88;100.00
55032;BME280;40928;51.076;7.950;2023-05-09T01:51:03;97240.34;;;11.87;100.00
55032;BME280;40928;51.076;7.950;2023-05-09T01:53:30;97240.34;;;11.87;100.00
55032;BME280;40928;51.076;7.950;2023-05-09T01:55:58;97247.91;;;11.90;100.00
55032;BME280;40928;51.076;7.950;2023-05-09T01:58:25;97241.97;;;11.88;100.00
55032;BME280;40928;51.076;7.950;2023-05-09T02:00:52;97240.91;;;11.89;100.00
55032;BME280;40928;51.076;7.950;2023-05-09T02:03:18;97233.72;;;11.90;100.00
55032;BME280;40928;51.076;7.950;2023-05-09T02:05:44;97235.09;;;11.92;100.00
55032;BME280;40928;51.076;7.950;2023-05-09T02:08:13;97233.47;;;11.91;100.00
55032;BME280;40928;51.076;7.950;2023-05-09T02:10:39;97234.72;;;12.00;100.00
55032;BME280;40928;51.076;7.950;2023-05-09T02:13:05;97236.91;;;12.03;100.00
55032;BME280;40928;51.076;7.950;2023-05-09T02:15:31;97233.75;;;12.07;100.00
55032;BME280;40928;51.076;7.950;2023-05-09T02:17:56;97223.78;;;12.02;100.00
55032;BME280;40928;51.076;7.950;2023-05-09T02:20:22;97232.28;;;11.99;100.00
55032;BME280;40928;51.076;7.950;2023-05-09T02:22:48;97222.84;;;11.96;100.00
55032;BME280;40928;51.076;7.950;2023-05-09T02:25:14;97223.03;;;11.90;100.00
55032;BME280;40928;51.076;7.950;2023-05-09T02:27:42;97221.88;;;11.85;100.00
55032;BME280;40928;51.076;7.950;2023-05-09T02:30:11;97217.47;;;11.79;100.00
55032;BME280;40928;51.076;7.950;2023-05-09T02:32:38;97212.75;;;11.69;100.00
55032;BME280;40928;51.076;7.950;2023-05-09T02:35:06;97218.47;;;11.73;100.00
55032;BME280;40928;51.076;7.950;2023-05-09T02:37:34;97220.78;;;11.69;100.00
55032;BME280;40928;51.076;7.950;2023-05-09T02:40:00;97220.78;;;11.69;100.00
55032;BME280;40928;51.076;7.950;2023-05-09T02:42:26;97213.59;;;11.70;100.00
55032;BME280;40928;51.076;7.950;2023-05-09T02:44:54;97206.34;;;11.70;100.00
55032;BME280;40928;51.076;7.950;2023-05-09T02:47:21;97205.88;;;11.73;100.00
55032;BME280;40928;51.076;7.950;2023-05-09T02:49:46;97207.59;;;11.80;100.00
55032;BME280;40928;51.076;7.950;2023-05-09T02:52:13;97203.03;;;11.80;100.00
55032;BME280;40928;51.076;7.950;2023-05-09T02:54:38;97204.19;;;11.84;100.00
55032;BME280;40928;51.076;7.950;2023-05-09T02:57:04;97203.72;;;11.87;100.00
55032;BME280;40928;51.076;7.950;2023-05-09T02:59:30;97200.31;;;11.92;100.00
55032;BME280;40928;51.076;7.950;2023-05-09T03:01:59;97200.41;;;11.97;100.00
55032;BME280;40928;51.076;7.950;2023-05-09T03:04:25;97194.56;;;12.00;100.00
55032;BME280;40928;51.076;7.950;2023-05-09T03:06:51;97195.69;;;12.05;100.00
55032;BME280;40928;51.076;7.950;2023-05-09T03:09:17;97197.06;;;12.07;100.00
55032;BME280;40928;51.076;7.950;2023-05-09T03:11:43;97197.91;;;12.08;100.00
55032;BME280;40928;51.076;7.950;2023-05-09T03:14:08;97197.06;;;12.07;100.00
55032;BME280;40928;51.076;7.950;2023-05-09T03:16:35;97194.16;;;12.09;100.00
55032;BME280;40928;51.076;7.950;2023-05-09T03:19:02;97193.91;;;12.10;100.00
55032;BME280;40928;51.076;7.950;2023-05-09T03:21:28;97189.38;;;12.11;100.00
55032;BME280;40928;51.076;7.950;2023-05-09T03:23:54;97181.34;;;12.11;100.00
55032;BME280;40928;51.076;7.950;2023-05-09T03:26:20;97180.78;;;12.09;100.00
55032;BME280;40928;51.076;7.950;2023-05-09T03:28:46;97175.91;;;12.06;100.00
55032;BME280;40928;51.076;7.950;2023-05-09T03:31:14;97184.50;;;12.08;100.00
55032;BME280;40928;51.076;7.950;2023-05-09T03:33:40;97185.56;;;12.07;100.00
55032;BME280;40928;51.076;7.950;2023-05-09T03:36:07;97184.78;;;12.06;100.00
55032;BME280;40928;51.076;7.950;2023-05-09T03:38:34;97173.97;;;12.01;100.00
55032;BME280;40928;51.076;7.950;2023-05-09T03:40:59;97182.47;;;11.98;100.00
55032;BME280;40928;51.076;7.950;2023-05-09T03:43:25;97182.13;;;11.94;100.00
55032;BME280;40928;51.076;7.950;2023-05-09T03:45:50;97182.38;;;11.93;100.00
55032;BME280;40928;51.076;7.950;2023-05-09T03:48:16;97179.69;;;11.93;100.00
55032;BME280;40928;51.076;7.950;2023-05-09T03:50:49;97162.00;;;11.92;100.00
55032;BME280;40928;51.076;7.950;2023-05-09T03:53:15;97162.84;;;11.92;100.00
55032;BME280;40928;51.076;7.950;2023-05-09T03:55:42;97158.63;;;11.96;100.00
55032;BME280;40928;51.076;7.950;2023-05-09T03:58:10;97157.34;;;11.99;100.00
55032;BME280;40928;51.076;7.950;2023-05-09T04:00:39;97162.53;;;12.06;100.00
55032;BME280;40928;51.076;7.950;2023-05-09T04:03:10;97149.22;;;12.11;100.00
55032;BME280;40928;51.076;7.950;2023-05-09T04:05:39;97160.25;;;12.14;100.00
55032;BME280;40928;51.076;7.950;2023-05-09T04:08:10;97160.09;;;12.21;100.00
55032;BME280;40928;51.076;7.950;2023-05-09T04:10:35;97155.78;;;12.20;100.00
55032;BME280;40928;51.076;7.950;2023-05-09T04:13:02;97167.16;;;12.27;100.00
55032;BME280;40928;51.076;7.950;2023-05-09T04:15:28;97161.03;;;12.32;100.00
55032;BME280;40928;51.076;7.950;2023-05-09T04:17:56;97163.47;;;12.33;100.00
55032;BME280;40928;51.076;7.950;2023-05-09T04:20:21;97162.97;;;12.37;100.00
55032;BME280;40928;51.076;7.950;2023-05-09T04:22:47;97157.69;;;12.42;100.00
55032;BME280;40928;51.076;7.950;2023-05-09T04:25:14;97159.38;;;12.48;100.00
55032;BME280;40928;51.076;7.950;2023-05-09T04:27:41;97167.00;;;12.56;100.00
55032;BME280;40928;51.076;7.950;2023-05-09T04:30:07;97160.50;;;12.52;100.00
55032;BME280;40928;51.076;7.950;2023-05-09T04:32:34;97154.59;;;12.50;100.00
55032;BME280;40928;51.076;7.950;2023-05-09T04:35:00;97152.72;;;12.51;100.00
55032;BME280;40928;51.076;7.950;2023-05-09T04:37:30;97154.09;;;12.53;100.00
55032;BME280;40928;51.076;7.950;2023-05-09T04:39:57;97143.88;;;12.50;100.00
55032;BME280;40928;51.076;7.950;2023-05-09T04:42:29;97143.94;;;12.55;100.00
55032;BME280;40928;51.076;7.950;2023-05-09T04:44:58;97142.31;;;12.54;100.00
55032;BME280;40928;51.076;7.950;2023-05-09T04:47:24;97142.06;;;12.56;100.00
55032;BME280;40928;51.076;7.950;2023-05-09T04:49:50;97135.16;;;12.60;100.00
55032;BME280;40928;51.076;7.950;2023-05-09T04:52:16;97129.59;;;12.67;100.00
55032;BME280;40928;51.076;7.950;2023-05-09T04:54:42;97123.13;;;12.62;100.00
55032;BME280;40928;51.076;7.950;2023-05-09T04:57:08;97129.03;;;12.64;100.00
55032;BME280;40928;51.076;7.950;2023-05-09T04:59:35;97130.09;;;12.63;100.00
55032;BME280;40928;51.076;7.950;2023-05-09T05:02:01;97120.50;;;12.68;100.00
55032;BME280;40928;51.076;7.950;2023-05-09T05:04:27;97123.75;;;12.70;100.00
55032;BME280;40928;51.076;7.950;2023-05-09T05:06:53;97120.03;;;12.71;100.00
55032;BME280;40928;51.076;7.950;2023-05-09T05:09:19;97123.75;;;12.70;100.00
55032;BME280;40928;51.076;7.950;2023-05-09T05:11:45;97120.03;;;12.71;100.00
55032;BME280;40928;51.076;7.950;2023-05-09T05:14:11;97124.06;;;12.73;100.00
55032;BME280;40928;51.076;7.950;2023-05-09T05:16:37;97122.22;;;12.74;100.00
55032;BME280;40928;51.076;7.950;2023-05-09T05:19:03;97121.16;;;12.75;100.00
55032;BME280;40928;51.076;7.950;2023-05-09T05:21:31;97117.91;;;12.73;100.00
55032;BME280;40928;51.076;7.950;2023-05-09T05:23:57;97112.06;;;12.76;100.00
55032;BME280;40928;51.076;7.950;2023-05-09T05:26:23;97120.69;;;12.83;100.00
55032;BME280;40928;51.076;7.950;2023-05-09T05:28:50;97109.22;;;12.88;100.00
55032;BME280;40928;51.076;7.950;2023-05-09T05:31:20;97121.63;;;12.94;100.00
55032;BME280;40928;51.076;7.950;2023-05-09T05:33:46;97118.75;;;13.01;100.00
55032;BME280;40928;51.076;7.950;2023-05-09T05:36:12;97118.03;;;13.10;100.00
55032;BME280;40928;51.076;7.950;2023-05-09T05:38:38;97116.50;;;13.20;100.00
55032;BME280;40928;51.076;7.950;2023-05-09T05:41:03;97105.28;;;13.23;100.00
55032;BME280;40928;51.076;7.950;2023-05-09T05:43:30;97103.22;;;13.30;100.00
55032;BME280;40928;51.076;7.950;2023-05-09T05:45:55;97109.66;;;13.29;100.00
55032;BME280;40928;51.076;7.950;2023-05-09T05:48:22;97098.91;;;13.29;100.00
55032;BME280;40928;51.076;7.950;2023-05-09T05:50:48;97101.06;;;13.32;100.00
55032;BME280;40928;51.076;7.950;2023-05-09T05:53:16;97104.88;;;13.36;100.00
55032;BME280;40928;51.076;7.950;2023-05-09T05:55:42;97108.94;;;13.39;100.00
55032;BME280;40928;51.076;7.950;2023-05-09T05:58:10;97104.94;;;13.42;100.00
55032;BME280;40928;51.076;7.950;2023-05-09T06:00:35;97103.63;;;13.44;100.00
55032;BME280;40928;51.076;7.950;2023-05-09T06:03:04;97102.06;;;13.48;100.00
55032;BME280;40928;51.076;7.950;2023-05-09T06:05:42;97107.22;;;13.55;100.00
55032;BME280;40928;51.076;7.950;2023-05-09T06:08:11;97098.31;;;13.49;100.00
55032;BME280;40928;51.076;7.950;2023-05-09T06:10:37;97099.22;;;13.60;100.00
55032;BME280;40928;51.076;7.950;2023-05-09T06:13:05;97094.69;;;13.66;100.00
55032;BME280;40928;51.076;7.950;2023-05-09T06:15:32;97091.50;;;13.74;100.00
55032;BME280;40928;51.076;7.950;2023-05-09T06:17:58;97087.53;;;13.77;100.00
55032;BME280;40928;51.076;7.950;2023-05-09T06:20:23;97077.13;;;13.85;100.00
55032;BME280;40928;51.076;7.950;2023-05-09T06:22:49;97082.00;;;13.94;100.00
55032;BME280;40928;51.076;7.950;2023-05-09T06:25:14;97074.22;;;13.97;100.00
55032;BME280;40928;51.076;7.950;2023-05-09T06:27:41;97071.31;;;14.04;100.00
55032;BME280;40928;51.076;7.950;2023-05-09T06:30:07;97064.34;;;14.08;100.00
55032;BME280;40928;51.076;7.950;2023-05-09T06:32:32;97073.00;;;14.15;100.00
55032;BME280;40928;51.076;7.950;2023-05-09T06:34:58;97077.81;;;14.19;100.00
55032;BME280;40928;51.076;7.950;2023-05-09T06:37:23;97063.31;;;14.20;100.00
55032;BME280;40928;51.076;7.950;2023-05-09T06:39:49;97069.81;;;14.24;100.00
55032;BME280;40928;51.076;7.950;2023-05-09T06:42:15;97056.66;;;14.22;100.00
55032;BME280;40928;51.076;7.950;2023-05-09T06:44:42;97064.78;;;14.38;100.00
55032;BME280;40928;51.076;7.950;2023-05-09T06:47:08;97061.78;;;14.29;100.00
55032;BME280;40928;51.076;7.950;2023-05-09T06:49:34;97060.16;;;14.28;100.00
55032;BME280;40928;51.076;7.950;2023-05-09T06:51:59;97056.41;;;14.29;100.00
55032;BME280;40928;51.076;7.950;2023-05-09T06:54:25;97056.91;;;14.26;100.00
55032;BME280;40928;51.076;7.950;2023-05-09T06:56:50;97050.50;;;14.32;100.00
55032;BME280;40928;51.076;7.950;2023-05-09T06:59:16;97042.91;;;14.19;100.00
55032;BME280;40928;51.076;7.950;2023-05-09T07:01:42;97033.81;;;14.25;100.00
55032;BME280;40928;51.076;7.950;2023-05-09T07:04:07;97028.47;;;14.35;100.00
55032;BME280;40928;51.076;7.950;2023-05-09T07:06:33;97030.63;;;14.33;100.00
55032;BME280;40928;51.076;7.950;2023-05-09T07:08:58;97021.50;;;14.34;100.00
55032;BME280;40928;51.076;7.950;2023-05-09T07:11:24;97022.59;;;14.38;100.00
55032;BME280;40928;51.076;7.950;2023-05-09T07:13:49;97019.91;;;14.49;100.00
55032;BME280;40928;51.076;7.950;2023-05-09T07:16:15;97019.69;;;14.55;100.00
55032;BME280;40928;51.076;7.950;2023-05-09T07:18:43;97009.53;;;14.68;100.00
55032;BME280;40928;51.076;7.950;2023-05-09T07:21:08;97011.44;;;14.72;100.00
55032;BME280;40928;51.076;7.950;2023-05-09T07:23:34;97013.34;;;14.82;100.00
55032;BME280;40928;51.076;7.950;2023-05-09T07:25:59;97016.84;;;14.93;100.00
55032;BME280;40928;51.076;7.950;2023-05-09T07:28:26;97017.63;;;14.88;100.00
55032;BME280;40928;51.076;7.950;2023-05-09T07:30:54;97009.31;;;14.90;100.00
55032;BME280;40928;51.076;7.950;2023-05-09T07:33:19;97005.00;;;14.79;100.00
55032;BME280;40928;51.076;7.950;2023-05-09T07:35:45;97003.66;;;14.81;100.00
55032;BME280;40928;51.076;7.950;2023-05-09T07:38:10;96996.38;;;14.82;100.00
55032;BME280;40928;51.076;7.950;2023-05-09T07:40:36;96997.16;;;14.72;100.00
55032;BME280;40928;51.076;7.950;2023-05-09T07:43:03;96991.00;;;14.82;100.00
55032;BME280;40928;51.076;7.950;2023-05-09T07:45:28;96992.66;;;14.93;100.00
55032;BME280;40928;51.076;7.950;2023-05-09T07:47:54;96994.00;;;15.01;100.00
55032;BME280;40928;51.076;7.950;2023-05-09T07:50:19;96995.31;;;14.98;100.00
55032;BME280;40928;51.076;7.950;2023-05-09T07:52:45;96994.50;;;15.03;100.00
55032;BME280;40928;51.076;7.950;2023-05-09T07:55:10;96991.28;;;15.06;100.00
55032;BME280;40928;51.076;7.950;2023-05-09T07:57:36;96989.69;;;15.05;100.00
55032;BME280;40928;51.076;7.950;2023-05-09T08:00:04;96989.44;;;15.06;100.00
55032;BME280;40928;51.076;7.950;2023-05-09T08:02:38;96993.19;;;15.05;100.00
55032;BME280;40928;51.076;7.950;2023-05-09T08:05:04;96987.28;;;15.09;100.00
55032;BME280;40928;51.076;7.950;2023-05-09T08:07:30;96975.16;;;15.11;100.00
55032;BME280;40928;51.076;7.950;2023-05-09T08:09:55;96975.97;;;15.12;100.00
55032;BME280;40928;51.076;7.950;2023-05-09T08:12:21;96974.34;;;15.16;100.00
55032;BME280;40928;51.076;7.950;2023-05-09T08:14:46;96971.69;;;15.21;100.00
55032;BME280;40928;51.076;7.950;2023-05-09T08:17:12;96964.69;;;15.25;100.00
55032;BME280;40928;51.076;7.950;2023-05-09T08:19:37;96964.13;;;15.28;100.00
55032;BME280;40928;51.076;7.950;2023-05-09T08:22:02;96950.69;;;15.23;100.00
55032;BME280;40928;51.076;7.950;2023-05-09T08:24:28;96957.94;;;15.22;100.00
55032;BME280;40928;51.076;7.950;2023-05-09T08:26:54;96949.06;;;15.12;100.00
55032;BME280;40928;51.076;7.950;2023-05-09T08:29:19;96945.31;;;15.18;100.00
55032;BME280;40928;51.076;7.950;2023-05-09T08:31:45;96942.63;;;15.23;100.00
55032;BME280;40928;51.076;7.950;2023-05-09T08:34:10;96936.16;;;15.24;100.00
55032;BME280;40928;51.076;7.950;2023-05-09T08:36:36;96937.78;;;15.25;100.00
55032;BME280;40928;51.076;7.950;2023-05-09T08:39:02;96930.50;;;15.31;100.00
55032;BME280;40928;51.076;7.950;2023-05-09T08:41:28;96931.84;;;15.33;100.00
55032;BME280;40928;51.076;7.950;2023-05-09T08:43:54;96925.88;;;15.42;100.00
55032;BME280;40928;51.076;7.950;2023-05-09T08:46:33;96924.81;;;15.48;100.00
55032;BME280;40928;51.076;7.950;2023-05-09T08:49:00;96922.09;;;15.58;100.00
55032;BME280;40928;51.076;7.950;2023-05-09T08:51:29;96922.09;;;15.58;100.00
55032;BME280;40928;51.076;7.950;2023-05-09T08:53:56;96915.63;;;15.59;100.00
55032;BME280;40928;51.076;7.950;2023-05-09T08:56:22;96922.66;;;15.50;100.00
55032;BME280;40928;51.076;7.950;2023-05-09T08:58:48;96925.38;;;15.40;100.00
55032;BME280;40928;51.076;7.950;2023-05-09T09:01:15;96920.53;;;15.26;100.00
55032;BME280;40928;51.076;7.950;2023-05-09T09:03:42;96925.94;;;15.16;100.00
55032;BME280;40928;51.076;7.950;2023-05-09T09:06:12;96913.00;;;15.28;100.00
55032;BME280;40928;51.076;7.950;2023-05-09T09:08:37;96914.13;;;15.22;100.00
55032;BME280;40928;51.076;7.950;2023-05-09T09:11:04;96917.84;;;15.26;100.00
55032;BME280;40928;51.076;7.950;2023-05-09T09:13:30;96917.84;;;15.36;100.00
55032;BME280;40928;51.076;7.950;2023-05-09T09:15:57;96909.19;;;15.50;100.00
55032;BME280;40928;51.076;7.950;2023-05-09T09:18:28;96911.56;;;15.67;100.00
55032;BME280;40928;51.076;7.950;2023-05-09T09:21:08;96907.50;;;15.85;100.00
55032;BME280;40928;51.076;7.950;2023-05-09T09:23:36;96902.59;;;16.03;100.00
55032;BME280;40928;51.076;7.950;2023-05-09T09:26:03;96900.75;;;15.88;100.00
55032;BME280;40928;51.076;7.950;2023-05-09T09:28:29;96896.75;;;15.85;100.00
55032;BME280;40928;51.076;7.950;2023-05-09T09:30:55;96883.25;;;15.80;100.00
55032;BME280;40928;51.076;7.950;2023-05-09T09:33:22;96885.66;;;15.92;100.00
55032;BME280;40928;51.076;7.950;2023-05-09T09:35:48;96879.97;;;15.98;100.00
55032;BME280;40928;51.076;7.950;2023-05-09T09:38:19;96883.06;;;16.21;100.00
55032;BME280;40928;51.076;7.950;2023-05-09T09:41:03;96879.34;;;16.17;100.00
55032;BME280;40928;51.076;7.950;2023-05-09T09:43:30;96865.28;;;16.25;100.00
55032;BME280;40928;51.076;7.950;2023-05-09T09:45:56;96873.69;;;16.53;100.00
55032;BME280;40928;51.076;7.950;2023-05-09T09:48:32;96866.13;;;16.55;100.00
55032;BME280;40928;51.076;7.950;2023-05-09T09:51:08;96864.59;;;16.49;100.00
55032;BME280;40928;51.076;7.950;2023-05-09T09:53:41;96863.38;;;16.66;100.00
55032;BME280;40928;51.076;7.950;2023-05-09T09:56:07;96849.91;;;16.66;100.00
55032;BME280;40928;51.076;7.950;2023-05-09T09:58:33;96857.94;;;16.71;100.00
55032;BME280;40928;51.076;7.950;2023-05-09T10:01:06;96851.25;;;16.63;100.00
55032;BME280;40928;51.076;7.950;2023-05-09T10:03:39;96847.09;;;16.76;100.00
55032;BME280;40928;51.076;7.950;2023-05-09T10:06:09;96848.28;;;16.65;100.00
55032;BME280;40928;51.076;7.950;2023-05-09T10:08:36;96838.63;;;16.58;100.00
55032;BME280;40928;51.076;7.950;2023-05-09T10:11:02;96834.19;;;16.73;100.00
55032;BME280;40928;51.076;7.950;2023-05-09T10:13:28;96837.47;;;16.99;100.00
55032;BME280;40928;51.076;7.950;2023-05-09T10:15:57;96830.56;;;17.17;100.00
55032;BME280;40928;51.076;7.950;2023-05-09T10:18:26;96825.09;;;17.23;100.00
55032;BME280;40928;51.076;7.950;2023-05-09T10:20:52;96827.31;;;17.15;100.00
55032;BME280;40928;51.076;7.950;2023-05-09T10:23:19;96824.75;;;17.05;100.00
55032;BME280;40928;51.076;7.950;2023-05-09T10:25:56;96822.97;;;16.90;100.00
55032;BME280;40928;51.076;7.950;2023-05-09T10:28:26;96818.50;;;16.80;100.00
55032;BME280;40928;51.076;7.950;2023-05-09T10:33:36;96817.75;;;16.40;100.00
55032;BME280;40928;51.076;7.950;2023-05-09T10:36:03;96816.97;;;16.34;100.00
55032;BME280;40928;51.076;7.950;2023-05-09T10:38:29;96819.44;;;16.31;100.00
55032;BME280;40928;51.076;7.950;2023-05-09T10:40:55;96809.97;;;16.33;100.00
55032;BME280;40928;51.076;7.950;2023-05-09T10:43:22;96811.19;;;16.51;100.00
55032;BME280;40928;51.076;7.950;2023-05-09T10:45:50;96808.22;;;16.53;100.00
55032;BME280;40928;51.076;7.950;2023-05-09T10:48:16;96797.00;;;16.70;100.00
55032;BME280;40928;51.076;7.950;2023-05-09T10:50:44;96792.66;;;16.74;100.00
55032;BME280;40928;51.076;7.950;2023-05-09T10:53:10;96787.91;;;16.66;100.00
55032;BME280;40928;51.076;7.950;2023-05-09T10:55:46;96789.81;;;16.60;100.00
55032;BME280;40928;51.076;7.950;2023-05-09T10:58:28;96791.28;;;16.47;100.00
55032;BME280;40928;51.076;7.950;2023-05-09T11:00:57;96783.34;;;16.32;100.00
55032;BME280;40928;51.076;7.950;2023-05-09T11:03:24;96784.47;;;16.20;100.00
55032;BME280;40928;51.076;7.950;2023-05-09T11:05:55;96784.34;;;16.01;100.00
55032;BME280;40928;51.076;7.950;2023-05-09T11:08:28;96783.09;;;15.88;100.00
55032;BME280;40928;51.076;7.950;2023-05-09T11:11:06;96787.13;;;15.80;100.00
55032;BME280;40928;51.076;7.950;2023-05-09T11:13:35;96779.06;;;15.80;100.00
55032;BME280;40928;51.076;7.950;2023-05-09T11:16:03;96768.34;;;15.75;100.00
55032;BME280;40928;51.076;7.950;2023-05-09T11:18:30;96768.88;;;15.72;100.00
55032;BME280;40928;51.076;7.950;2023-05-09T11:21:06;96770.50;;;15.73;100.00
55032;BME280;40928;51.076;7.950;2023-05-09T11:23:33;96768.09;;;15.72;100.00
55032;BME280;40928;51.076;7.950;2023-05-09T11:26:06;96765.66;;;15.75;100.00
55032;BME280;40928;51.076;7.950;2023-05-09T11:28:36;96767.81;;;15.68;100.00
55032;BME280;40928;51.076;7.950;2023-05-09T11:31:15;96767.06;;;15.62;100.00
55032;BME280;40928;51.076;7.950;2023-05-09T11:33:43;96766.56;;;15.55;100.00
55032;BME280;40928;51.076;7.950;2023-05-09T11:36:29;96762.06;;;15.40;100.00
55032;BME280;40928;51.076;7.950;2023-05-09T11:39:07;96759.13;;;15.31;100.00
55032;BME280;40928;51.076;7.950;2023-05-09T11:41:45;96751.06;;;15.26;100.00
55032;BME280;40928;51.076;7.950;2023-05-09T11:44:18;96747.06;;;15.18;100.00
55032;BME280;40928;51.076;7.950;2023-05-09T11:46:46;96742.75;;;15.22;100.00
55032;BME280;40928;51.076;7.950;2023-05-09T11:49:12;96740.28;;;15.36;100.00
55032;BME280;40928;51.076;7.950;2023-05-09T11:51:38;96737.44;;;15.62;100.00
55032;BME280;40928;51.076;7.950;2023-05-09T11:54:05;96733.69;;;16.08;100.00
55032;BME280;40928;51.076;7.950;2023-05-09T11:56:38;96725.59;;;16.38;100.00
55032;BME280;40928;51.076;7.950;2023-05-09T11:59:04;96719.34;;;16.72;100.00
55032;BME280;40928;51.076;7.950;2023-05-09T12:01:29;96727.94;;;17.03;100.00
55032;BME280;40928;51.076;7.950;2023-05-09T12:03:57;96721.34;;;17.34;100.00
55032;BME280;40928;51.076;7.950;2023-05-09T12:06:23;96725.44;;;17.31;100.00
55032;BME280;40928;51.076;7.950;2023-05-09T12:08:50;96710.53;;;17.34;100.00
55032;BME280;40928;51.076;7.950;2023-05-09T12:11:17;96713.59;;;17.27;100.00
55032;BME280;40928;51.076;7.950;2023-05-09T12:13:47;96705.13;;;17.15;100.00
55032;BME280;40928;51.076;7.950;2023-05-09T12:16:13;96714.81;;;16.97;100.00
55032;BME280;40928;51.076;7.950;2023-05-09T12:18:44;96701.69;;;16.85;100.00
55032;BME280;40928;51.076;7.950;2023-05-09T12:21:09;96705.69;;;16.63;100.00
55032;BME280;40928;51.076;7.950;2023-05-09T12:23:36;96700.28;;;16.63;100.00
55032;BME280;40928;51.076;7.950;2023-05-09T12:26:01;96693.75;;;16.45;100.00
55032;BME280;40928;51.076;7.950;2023-05-09T12:28:27;96685.69;;;16.40;100.00
55032;BME280;40928;51.076;7.950;2023-05-09T12:30:53;96689.47;;;16.39;100.00
55032;BME280;40928;51.076;7.950;2023-05-09T12:33:19;96678.13;;;16.42;100.00
55032;BME280;40928;51.076;7.950;2023-05-09T12:35:48;96680.84;;;16.42;100.00
55032;BME280;40928;51.076;7.950;2023-05-09T12:38:24;96678.84;;;16.23;100.00
55032;BME280;40928;51.076;7.950;2023-05-09T12:41:06;96680.59;;;16.09;100.00
55032;BME280;40928;51.076;7.950;2023-05-09T12:43:34;96672.41;;;15.90;100.00
55032;BME280;40928;51.076;7.950;2023-05-09T12:46:01;96665.72;;;15.82;100.00
55032;BME280;40928;51.076;7.950;2023-05-09T12:48:29;96669.81;;;15.74;100.00
55032;BME280;40928;51.076;7.950;2023-05-09T12:50:55;96658.19;;;15.79;100.00
55032;BME280;40928;51.076;7.950;2023-05-09T12:53:24;96656.81;;;15.81;100.00
55032;BME280;40928;51.076;7.950;2023-05-09T12:55:54;96669.50;;;15.86;100.00
55032;BME280;40928;51.076;7.950;2023-05-09T12:58:20;96666.47;;;15.93;100.00
55032;BME280;40928;51.076;7.950;2023-05-09T13:00:46;96659.38;;;16.02;100.00